createdAt,value
2022-12-15T00:02:17.918Z,35.00
2022-12-15T00:22:17.578Z,26.20
2022-12-15T00:42:17.293Z,37.00
2022-12-15T01:02:17.131Z,32.10
2022-12-15T01:22:16.752Z,28.70
2022-12-15T01:42:16.510Z,23.00
2022-12-15T02:02:16.401Z,27.00
2022-12-15T02:22:15.978Z,31.30
2022-12-15T02:42:15.743Z,29.40
2022-12-15T03:02:15.647Z,17.90
2022-12-15T03:22:15.199Z,29.70
2022-12-15T03:42:14.908Z,17.80
2022-12-15T04:02:14.918Z,23.80
2022-12-15T04:22:17.971Z,24.20
2022-12-15T04:42:14.109Z,31.80
2022-12-15T05:02:14.038Z,34.70
2022-12-15T05:22:13.618Z,34.90
2022-12-15T05:42:13.372Z,34.80
2022-12-15T06:02:13.175Z,16.60
2022-12-15T06:22:12.813Z,20.80
2022-12-15T06:42:12.736Z,29.40
2022-12-15T07:02:12.539Z,20.10
2022-12-15T07:22:12.032Z,33.80
2022-12-15T07:42:11.783Z,27.70
2022-12-15T08:02:11.757Z,27.30
2022-12-15T08:22:11.312Z,27.80
2022-12-15T08:42:11.025Z,29.00
2022-12-15T09:02:22.471Z,37.40
2022-12-15T09:22:10.543Z,68.40
2022-12-15T09:42:10.341Z,44.70
2022-12-15T10:02:10.037Z,38.00
2022-12-15T10:22:09.656Z,65.70
2022-12-15T10:42:09.427Z,33.00
2022-12-15T11:02:09.272Z,30.40
2022-12-15T11:22:08.870Z,24.30
2022-12-15T11:42:08.674Z,20.30
2022-12-15T12:02:08.412Z,22.30
2022-12-15T12:22:08.086Z,17.00
2022-12-15T12:42:07.890Z,16.10
2022-12-15T13:02:07.661Z,12.90
2022-12-15T13:22:07.275Z,14.00
2022-12-15T13:42:32.781Z,15.50
2022-12-15T14:02:06.772Z,11.80
2022-12-15T14:22:06.464Z,8.90
2022-12-15T14:42:06.406Z,13.70
2022-12-15T15:02:06.011Z,11.70
2022-12-15T15:22:05.694Z,24.60
2022-12-15T15:42:05.394Z,82.20
2022-12-15T16:02:06.220Z,33.80
2022-12-15T16:22:04.864Z,21.50
2022-12-15T16:42:04.626Z,26.40
2022-12-15T17:02:04.434Z,30.00
2022-12-15T17:22:04.055Z,30.20
2022-12-15T17:42:03.806Z,33.20
2022-12-15T18:02:03.770Z,32.60
2022-12-15T18:22:03.264Z,41.90
2022-12-15T18:42:03.034Z,35.00
2022-12-15T19:02:02.929Z,52.80
2022-12-15T19:22:02.476Z,44.40
2022-12-15T19:42:02.209Z,52.20
2022-12-15T20:02:02.159Z,48.30
2022-12-15T20:22:01.681Z,55.70
2022-12-15T20:42:01.414Z,54.80
2022-12-15T21:02:01.302Z,54.00
2022-12-15T21:22:00.867Z,66.40
2022-12-15T21:42:00.610Z,51.70
2022-12-15T22:02:00.426Z,63.00
2022-12-15T22:22:00.098Z,58.60
2022-12-15T22:41:59.850Z,63.20
2022-12-15T23:01:59.620Z,56.40
2022-12-15T23:21:59.287Z,104.50
2022-12-15T23:41:59.013Z,51.00
